NCAR-RAP Real-Time Weather Data

Output produced by METARs form (06 May 2021  15:39 UTC)
found at http://weather.rap.ucar.edu/surface/
 
KMCO 061453Z 25007KT 10SM FEW023 BKN034 BKN100 28/22 A3005 RMK AO2 SLP172 T02830222 58002
KMCO 061415Z 26008KT 10SM SCT021 BKN030 BKN100 29/22 A3005 RMK AO2 T02890222
KMCO 061353Z 28007KT 10SM FEW012 BKN022 BKN090 28/22 A3005 RMK AO2 SLP175 T02780222
KMCO 061317Z 22005KT 10SM SCT011 BKN017 BKN100 27/23 A3005 RMK AO2 T02670233
KMCO 061253Z 22005KT 10SM SCT008 SCT015 BKN090 26/24 A3005 RMK AO2 SLP175 T02610239
KMCO 061238Z 21005KT 9SM FEW007 FEW013 BKN090 26/24 A3005 RMK AO2 T02560239
KMCO 061153Z 20005KT 6SM BR FEW012 SCT090 24/23 A3005 RMK AO2 SLP174 T02390233 10239 20228 53010
KMCO 061053Z 17004KT 10SM FEW013 BKN100 23/23 A3004 RMK AO2 SLP170 T02330228
KMCO 061003Z 17003KT 10SM SCT013 BKN100 23/22 A3003 RMK AO2 T02280217
KMCO 060953Z 00000KT 10SM BKN014 BKN100 23/22 A3003 RMK AO2 SLP166 T02330222
KMCO 060940Z 22003KT 10SM BKN014 BKN090 23/22 A3003 RMK AO2 T02330217
KMCO 060853Z 00000KT 10SM FEW085 SCT110 23/22 A3002 RMK AO2 SLP164 T02330217 55002
KMCO 060753Z 21004KT 10SM FEW010 FEW100 23/21 A3001 RMK AO2 SLP161 T02330211
KMCO 060653Z 19004KT 10SM CLR 23/22 A3001 RMK AO2 SLP162 T02330217
KMCO 060553Z 17003KT 10SM CLR 23/22 A3003 RMK AO2 SLP166 T02280217 10311 20228 58009
KMCO 060453Z 16005KT 10SM FEW250 23/22 A3004 RMK AO2 SLP171 T02330222 403390228
KMCO 060353Z 18003KT 10SM CLR 23/22 A3005 RMK AO2 SLP173 T02330217
KMCO 060253Z 15007KT 10SM FEW040 FEW075 25/22 A3005 RMK AO2 SLP175 T02500217 51023
KMCO 060153Z 20005KT 10SM SCT036 BKN070 OVC090 27/21 A3005 RMK AO2 LTG DSNT E AND SE TSE31 SLP174 FRQ LTGIC DSNT NE-E CB DSNT NE-E T02720211
KMCO 060132Z 18004KT 10SM SCT036 BKN070 BKN090 27/22 A3005 RMK AO2 LTG DSNT E AND SE TSE31 CONS LTGIC DSNT NE-E CB DSNT NE-E T02720217
KMCO 060053Z 29009G17KT 10SM TS FEW050CB SCT070 BKN110 BKN250 31/21 A3003 RMK AO2 LTG DSNT E AND SE SLP167 FRQ LTGICCG E-S DSNT NE-SE-S TS E-S MOV E CB DSNT NE-SE-S T03060211
KMCO 052353Z 28011KT 10SM TS FEW060CB FEW110 SCT250 32/21 A2998 RMK AO2 LTG DSNT NE AND E SLP152 OCNL LTGCG NE-SE-S TS NE-SE-S MOV E VCSH NE-SE T03170206 10339 20311 53003